메인 페이지
METAR-TAF:

METAR-TAF

공항 :

Adirondack Regional Airport

Saranac Lake, 뉴욕, 미국

위도: 44-23-35N, 경도: 074-12-10W, 고도: 507m

현재 날씨관측

예보는 56분 전, 22:51시(UTC)에 발표되었습니다.
북동13kt
온도 3°C
습도 48%
기압 1014 hPa
시정: 16.1km
맑음

METAR: KSLK 312251Z AUTO 05013KT 10SM CLR 03/M07 A2995 RMK AO2 SLP159 T00331067

시각: 19:47 (23:47 UTC)

예보

예보는 27분 전, 23:20시(UTC)에 발표되었습니다.
예보 대상 시간: 01일 00시부터 01일 24시까지 (UTC)
북동10kt
시정: 10km
맑음
01일 0600시부터 (UTC)
kt
시정: 10km
고도 25000ft 상공 구름 조금
01일 1700시부터 (UTC)
북북동5kt
시정: 10km
고도 4500ft 상공 구름 많음
01일 2100시부터 (UTC)
북북동5kt
시정: 10km
고도 2500ft 상공 흐림

TAF: KSLK 312320Z 0100/0124 04010KT P6SM SKC FM010600 00000KT P6SM FEW250 FM011700 02005KT P6SM BKN045 FM012100 02005KT P6SM OVC025

4,000개 이상의 공항 관측 자료 및 예보 (METAR 및 TAF 보고).

지도상에서 검색 가능한 기상관측소가 노란 점과 빨간 점으로 표시되어 있습니다.

기상관측소 명을 보려면 표시 위로 마우스를 이동하세요.

날씨 관측과 예보를 보려면 클릭하세요.

지도 변경 : 확대하려면 엑스 표시가 있는 녹색 버튼, 축소하려면 빼기 표시가 있는 녹색 버튼, 다음 페이지의 지도를 보려면 녹색 화살표를 클릭하세요.


METAR-TAF: